West Alton, New Hampshire
Current Conditions -  °F | °C
As of 7:15 PM on Sunday 25 Jan 2015 (Local Time) from KLCI Reporting Station
Clear Clear  
Wind Chill: -15°   Ceiling: Unl
Heat Index: -10°   Visibility: 10mi
Dew Point: -19°   Wind: 6mph
Humidity: 49%   Direction: 290°WNW
Pressure: 29.88"   Gusts: NA
Location:  43.4879°N, 71.2495°W
Report Text: KLCI 260015Z AUTO 29005KT 10SM CLR M10/M19 A2988 RMK AO1
Loading
Personal Weather Stations






























Interactive Weather Map New forecast layout! Learn more

10-Day Weather Forecast

Advertisements
Track Severe Weather on mobile